sensor_id;sensor_type;location;lat;lon;timestamp;pressure;altitude;pressure_sealevel;temperature;humidity
47218;BME280;47282;53.362;-2.222;2022-10-28T12:07:07;100370.79;;;24.01;42.39
47218;BME280;47282;53.362;-2.222;2022-10-28T12:09:54;100365.53;;;24.98;41.94
47218;BME280;47282;53.362;-2.222;2022-10-28T12:12:32;100362.98;;;23.61;43.20
47218;BME280;47282;53.362;-2.222;2022-10-28T12:15:12;100362.68;;;22.93;43.07
47218;BME280;47282;53.362;-2.222;2022-10-28T12:17:47;100361.01;;;24.53;40.93
47218;BME280;47282;53.362;-2.222;2022-10-28T12:20:21;100370.30;;;25.60;37.63
47218;BME280;47282;53.362;-2.222;2022-10-28T12:22:52;100366.69;;;25.90;37.65
47218;BME280;47282;53.362;-2.222;2022-10-28T12:25:24;100378.68;;;24.88;39.04
47218;BME280;47282;53.362;-2.222;2022-10-28T12:27:57;100378.93;;;23.04;40.52
47218;BME280;47282;53.362;-2.222;2022-10-28T12:30:28;100385.44;;;21.60;42.59
47218;BME280;47282;53.362;-2.222;2022-10-28T12:33:00;100393.02;;;21.40;43.67
47218;BME280;47282;53.362;-2.222;2022-10-28T12:35:34;100396.47;;;22.68;42.40
47218;BME280;47282;53.362;-2.222;2022-10-28T12:38:10;100398.88;;;24.23;39.45
47218;BME280;47282;53.362;-2.222;2022-10-28T12:40:45;100396.38;;;24.05;40.17
47218;BME280;47282;53.362;-2.222;2022-10-28T12:43:20;100401.33;;;24.15;39.98
47218;BME280;47282;53.362;-2.222;2022-10-28T12:45:52;100405.05;;;24.04;40.16
47218;BME280;47282;53.362;-2.222;2022-10-28T12:48:28;100417.43;;;24.50;39.60
47218;BME280;47282;53.362;-2.222;2022-10-28T12:51:03;100413.07;;;24.31;39.25
47218;BME280;47282;53.362;-2.222;2022-10-28T12:53:38;100421.68;;;24.02;38.67
47218;BME280;47282;53.362;-2.222;2022-10-28T12:56:11;100423.22;;;24.30;38.87
47218;BME280;47282;53.362;-2.222;2022-10-28T12:58:49;100423.24;;;24.20;38.92
47218;BME280;47282;53.362;-2.222;2022-10-28T13:01:21;100429.64;;;24.30;39.28
47218;BME280;47282;53.362;-2.222;2022-10-28T13:03:51;100427.85;;;23.66;39.87
47218;BME280;47282;53.362;-2.222;2022-10-28T13:06:31;100433.59;;;23.95;39.08
47218;BME280;47282;53.362;-2.222;2022-10-28T13:09:21;100433.26;;;23.94;38.50
47218;BME280;47282;53.362;-2.222;2022-10-28T13:12:06;100432.41;;;23.95;38.48
47218;BME280;47282;53.362;-2.222;2022-10-28T13:15:00;100438.08;;;24.32;37.80
47218;BME280;47282;53.362;-2.222;2022-10-28T13:17:42;100438.45;;;24.46;38.15
47218;BME280;47282;53.362;-2.222;2022-10-28T13:20:28;100436.04;;;23.85;38.52
47218;BME280;47282;53.362;-2.222;2022-10-28T13:23:15;100434.61;;;23.98;38.29
47218;BME280;47282;53.362;-2.222;2022-10-28T13:25:55;100439.12;;;23.78;38.47
47218;BME280;47282;53.362;-2.222;2022-10-28T13:28:28;100439.76;;;23.71;38.24
47218;BME280;47282;53.362;-2.222;2022-10-28T13:30:59;100441.29;;;24.06;38.11
47218;BME280;47282;53.362;-2.222;2022-10-28T13:33:29;100452.93;;;24.01;37.64
47218;BME280;47282;53.362;-2.222;2022-10-28T13:36:09;100450.70;;;23.94;37.48
47218;BME280;47282;53.362;-2.222;2022-10-28T13:38:42;100448.99;;;23.59;38.01
47218;BME280;47282;53.362;-2.222;2022-10-28T13:41:48;100452.44;;;23.04;38.53
47218;BME280;47282;53.362;-2.222;2022-10-28T13:44:25;100451.69;;;22.93;38.48
47218;BME280;47282;53.362;-2.222;2022-10-28T13:47:28;100452.23;;;22.74;38.75
47218;BME280;47282;53.362;-2.222;2022-10-28T13:52:19;100453.61;;;21.90;39.53
47218;BME280;47282;53.362;-2.222;2022-10-28T13:54:56;100447.29;;;21.93;39.17
47218;BME280;47282;53.362;-2.222;2022-10-28T13:57:27;100448.17;;;22.12;39.02
47218;BME280;47282;53.362;-2.222;2022-10-28T13:59:58;100450.36;;;22.41;38.58
47218;BME280;47282;53.362;-2.222;2022-10-28T14:02:28;100457.89;;;22.41;38.75
47218;BME280;47282;53.362;-2.222;2022-10-28T14:05:05;100465.53;;;22.49;38.69
47218;BME280;47282;53.362;-2.222;2022-10-28T14:07:35;100468.34;;;22.36;38.95
47218;BME280;47282;53.362;-2.222;2022-10-28T14:10:18;100468.78;;;21.88;39.48
47218;BME280;47282;53.362;-2.222;2022-10-28T14:12:51;100468.55;;;21.92;39.44
47218;BME280;47282;53.362;-2.222;2022-10-28T14:15:24;100474.52;;;21.17;39.78
47218;BME280;47282;53.362;-2.222;2022-10-28T14:17:57;100475.05;;;20.51;40.92
47218;BME280;47282;53.362;-2.222;2022-10-28T14:20:30;100475.13;;;20.15;41.72
47218;BME280;47282;53.362;-2.222;2022-10-28T14:23:49;100481.56;;;19.41;42.53
47218;BME280;47282;53.362;-2.222;2022-10-28T14:26:17;100481.37;;;19.16;43.44
47218;BME280;47282;53.362;-2.222;2022-10-28T14:28:50;100475.52;;;18.76;43.87
47218;BME280;47282;53.362;-2.222;2022-10-28T14:31:52;100473.47;;;18.41;44.31
47218;BME280;47282;53.362;-2.222;2022-10-28T14:34:40;100478.27;;;18.29;44.88
47218;BME280;47282;53.362;-2.222;2022-10-28T14:37:24;100471.65;;;18.19;45.02
47218;BME280;47282;53.362;-2.222;2022-10-28T14:42:38;100474.76;;;17.93;45.63
47218;BME280;47282;53.362;-2.222;2022-10-28T14:45:22;100470.84;;;17.74;45.90
47218;BME280;47282;53.362;-2.222;2022-10-28T14:48:12;100476.10;;;17.52;46.20
47218;BME280;47282;53.362;-2.222;2022-10-28T14:50:48;100480.15;;;17.55;46.48
47218;BME280;47282;53.362;-2.222;2022-10-28T14:53:22;100479.40;;;17.37;46.74
47218;BME280;47282;53.362;-2.222;2022-10-28T14:55:57;100482.57;;;17.41;47.04
47218;BME280;47282;53.362;-2.222;2022-10-28T14:58:30;100486.96;;;17.24;47.36
47218;BME280;47282;53.362;-2.222;2022-10-28T15:01:17;100494.27;;;16.84;47.66
47218;BME280;47282;53.362;-2.222;2022-10-28T15:03:49;100496.78;;;17.10;48.07
47218;BME280;47282;53.362;-2.222;2022-10-28T15:06:23;100498.73;;;16.92;48.30
47218;BME280;47282;53.362;-2.222;2022-10-28T15:08:52;100499.77;;;16.48;48.52
47218;BME280;47282;53.362;-2.222;2022-10-28T15:11:21;100499.33;;;16.60;48.80
47218;BME280;47282;53.362;-2.222;2022-10-28T15:13:51;100497.28;;;16.46;49.07
47218;BME280;47282;53.362;-2.222;2022-10-28T15:16:20;100496.89;;;16.32;49.27
47218;BME280;47282;53.362;-2.222;2022-10-28T15:18:51;100496.73;;;16.17;49.48
47218;BME280;47282;53.362;-2.222;2022-10-28T15:21:21;100494.91;;;16.02;49.66
47218;BME280;47282;53.362;-2.222;2022-10-28T15:24:04;100498.50;;;15.90;49.85
47218;BME280;47282;53.362;-2.222;2022-10-28T15:26:32;100500.53;;;15.95;50.12
47218;BME280;47282;53.362;-2.222;2022-10-28T15:29:00;100497.90;;;15.58;50.31
47218;BME280;47282;53.362;-2.222;2022-10-28T15:31:29;100499.20;;;15.67;50.46
47218;BME280;47282;53.362;-2.222;2022-10-28T15:33:56;100498.74;;;15.58;50.59
47218;BME280;47282;53.362;-2.222;2022-10-28T15:36:25;100498.53;;;15.71;50.79
47218;BME280;47282;53.362;-2.222;2022-10-28T15:39:05;100504.45;;;15.64;50.94
47218;BME280;47282;53.362;-2.222;2022-10-28T15:41:40;100500.07;;;15.43;51.03
47218;BME280;47282;53.362;-2.222;2022-10-28T15:44:41;100497.18;;;15.38;51.18
47218;BME280;47282;53.362;-2.222;2022-10-28T15:47:29;100500.00;;;15.29;51.34
47218;BME280;47282;53.362;-2.222;2022-10-28T15:50:00;100495.25;;;15.17;51.55
47218;BME280;47282;53.362;-2.222;2022-10-28T15:52:33;100495.25;;;15.29;51.72
47218;BME280;47282;53.362;-2.222;2022-10-28T15:55:24;100499.81;;;15.19;51.91
47218;BME280;47282;53.362;-2.222;2022-10-28T15:57:54;100506.50;;;15.07;52.12
47218;BME280;47282;53.362;-2.222;2022-10-28T16:00:24;100513.03;;;14.95;52.36
47218;BME280;47282;53.362;-2.222;2022-10-28T16:02:55;100512.19;;;14.85;52.56
47218;BME280;47282;53.362;-2.222;2022-10-28T16:05:56;100512.72;;;14.74;52.74
47218;BME280;47282;53.362;-2.222;2022-10-28T16:08:26;100518.58;;;14.63;52.93
47218;BME280;47282;53.362;-2.222;2022-10-28T16:10:58;100517.08;;;14.50;53.15
47218;BME280;47282;53.362;-2.222;2022-10-28T16:13:30;100519.40;;;14.40;53.38
47218;BME280;47282;53.362;-2.222;2022-10-28T16:16:03;100519.31;;;14.26;53.60
47218;BME280;47282;53.362;-2.222;2022-10-28T16:18:38;100516.95;;;14.61;53.82
47218;BME280;47282;53.362;-2.222;2022-10-28T16:21:09;100509.16;;;14.47;54.03
47218;BME280;47282;53.362;-2.222;2022-10-28T16:23:43;100512.24;;;14.09;54.32
47218;BME280;47282;53.362;-2.222;2022-10-28T16:26:14;100517.51;;;13.67;54.56
47218;BME280;47282;53.362;-2.222;2022-10-28T16:28:42;100524.73;;;13.79;54.83
47218;BME280;47282;53.362;-2.222;2022-10-28T16:31:14;100530.33;;;13.88;54.98
47218;BME280;47282;53.362;-2.222;2022-10-28T16:33:43;100527.93;;;13.71;55.24
47218;BME280;47282;53.362;-2.222;2022-10-28T16:36:11;100530.85;;;13.57;55.44
47218;BME280;47282;53.362;-2.222;2022-10-28T16:38:39;100534.88;;;13.43;55.72
47218;BME280;47282;53.362;-2.222;2022-10-28T16:41:13;100541.53;;;13.31;55.83
47218;BME280;47282;53.362;-2.222;2022-10-28T16:43:42;100549.43;;;13.41;56.06
47218;BME280;47282;53.362;-2.222;2022-10-28T16:46:11;100556.25;;;13.06;56.25
47218;BME280;47282;53.362;-2.222;2022-10-28T16:48:39;100561.51;;;12.94;56.45
47218;BME280;47282;53.362;-2.222;2022-10-28T16:51:13;100565.81;;;13.30;56.59
47218;BME280;47282;53.362;-2.222;2022-10-28T16:53:41;100565.34;;;12.93;56.75
47218;BME280;47282;53.362;-2.222;2022-10-28T16:56:09;100564.84;;;12.82;56.94
47218;BME280;47282;53.362;-2.222;2022-10-28T16:58:37;100568.53;;;12.48;57.30
47218;BME280;47282;53.362;-2.222;2022-10-28T17:01:05;100572.41;;;12.65;57.54
47218;BME280;47282;53.362;-2.222;2022-10-28T17:03:33;100572.09;;;12.62;57.69
47218;BME280;47282;53.362;-2.222;2022-10-28T17:06:01;100577.55;;;12.87;57.90
47218;BME280;47282;53.362;-2.222;2022-10-28T17:08:29;100581.22;;;12.89;58.13
47218;BME280;47282;53.362;-2.222;2022-10-28T17:10:57;100578.32;;;12.89;58.29
47218;BME280;47282;53.362;-2.222;2022-10-28T17:13:25;100579.92;;;12.66;58.32
47218;BME280;47282;53.362;-2.222;2022-10-28T17:15:53;100579.75;;;12.68;58.46
47218;BME280;47282;53.362;-2.222;2022-10-28T17:18:21;100584.09;;;12.71;58.53
47218;BME280;47282;53.362;-2.222;2022-10-28T17:20:57;100584.90;;;12.99;58.55
47218;BME280;47282;53.362;-2.222;2022-10-28T17:23:25;100586.96;;;12.95;58.68
47218;BME280;47282;53.362;-2.222;2022-10-28T17:25:55;100590.88;;;12.62;58.76
47218;BME280;47282;53.362;-2.222;2022-10-28T17:28:23;100589.87;;;12.54;58.84
47218;BME280;47282;53.362;-2.222;2022-10-28T17:30:51;100592.69;;;12.74;58.94
47218;BME280;47282;53.362;-2.222;2022-10-28T17:33:19;100593.70;;;12.66;59.08
47218;BME280;47282;53.362;-2.222;2022-10-28T17:35:47;100598.54;;;12.30;59.29
47218;BME280;47282;53.362;-2.222;2022-10-28T17:38:15;100595.14;;;12.49;59.40
47218;BME280;47282;53.362;-2.222;2022-10-28T17:40:43;100594.49;;;12.41;59.60
47218;BME280;47282;53.362;-2.222;2022-10-28T17:43:19;100595.71;;;12.37;59.63
47218;BME280;47282;53.362;-2.222;2022-10-28T17:45:47;100591.84;;;12.31;59.77
47218;BME280;47282;53.362;-2.222;2022-10-28T17:48:16;100595.34;;;12.26;59.83
47218;BME280;47282;53.362;-2.222;2022-10-28T17:50:44;100597.30;;;12.17;60.03
47218;BME280;47282;53.362;-2.222;2022-10-28T17:53:19;100603.51;;;12.11;60.05
47218;BME280;47282;53.362;-2.222;2022-10-28T17:55:54;100611.77;;;12.03;60.16
47218;BME280;47282;53.362;-2.222;2022-10-28T17:58:22;100616.63;;;11.93;60.27
47218;BME280;47282;53.362;-2.222;2022-10-28T18:00:55;100620.47;;;11.84;60.41
47218;BME280;47282;53.362;-2.222;2022-10-28T18:03:23;100630.51;;;12.01;60.49
47218;BME280;47282;53.362;-2.222;2022-10-28T18:05:51;100643.37;;;11.75;60.64
47218;BME280;47282;53.362;-2.222;2022-10-28T18:08:20;100650.95;;;11.77;60.76
47218;BME280;47282;53.362;-2.222;2022-10-28T18:10:50;100650.06;;;11.76;60.74
47218;BME280;47282;53.362;-2.222;2022-10-28T18:13:18;100648.47;;;11.74;60.69
47218;BME280;47282;53.362;-2.222;2022-10-28T18:15:47;100655.38;;;11.92;60.70
47218;BME280;47282;53.362;-2.222;2022-10-28T18:18:14;100663.85;;;11.84;60.86
47218;BME280;47282;53.362;-2.222;2022-10-28T18:20:42;100664.08;;;12.08;60.95
47218;BME280;47282;53.362;-2.222;2022-10-28T18:23:10;100664.34;;;11.78;61.09
47218;BME280;47282;53.362;-2.222;2022-10-28T18:25:38;100666.41;;;11.78;61.15
47218;BME280;47282;53.362;-2.222;2022-10-28T18:28:06;100664.32;;;12.04;61.20
47218;BME280;47282;53.362;-2.222;2022-10-28T18:30:34;100660.02;;;11.54;61.20
47218;BME280;47282;53.362;-2.222;2022-10-28T18:33:02;100652.67;;;11.96;61.18
47218;BME280;47282;53.362;-2.222;2022-10-28T18:35:33;100647.16;;;11.90;61.26
47218;BME280;47282;53.362;-2.222;2022-10-28T18:38:01;100648.15;;;11.35;61.47
47218;BME280;47282;53.362;-2.222;2022-10-28T18:40:29;100653.50;;;11.78;61.42
47218;BME280;47282;53.362;-2.222;2022-10-28T18:42:57;100656.66;;;11.72;61.51
47218;BME280;47282;53.362;-2.222;2022-10-28T18:45:25;100647.13;;;11.36;61.67
47218;BME280;47282;53.362;-2.222;2022-10-28T18:47:53;100637.15;;;11.57;61.74
47218;BME280;47282;53.362;-2.222;2022-10-28T18:50:21;100647.24;;;11.52;61.85
47218;BME280;47282;53.362;-2.222;2022-10-28T18:52:49;100656.20;;;11.47;61.97
47218;BME280;47282;53.362;-2.222;2022-10-28T18:55:16;100660.71;;;11.45;62.00
47218;BME280;47282;53.362;-2.222;2022-10-28T18:57:44;100662.70;;;11.39;62.17
47218;BME280;47282;53.362;-2.222;2022-10-28T19:00:16;100668.01;;;11.36;62.26
47218;BME280;47282;53.362;-2.222;2022-10-28T19:02:44;100676.59;;;11.34;62.36
47218;BME280;47282;53.362;-2.222;2022-10-28T19:05:12;100681.64;;;11.33;62.44
47218;BME280;47282;53.362;-2.222;2022-10-28T19:07:40;100681.32;;;11.32;62.53
47218;BME280;47282;53.362;-2.222;2022-10-28T19:10:09;100678.15;;;11.30;62.60
47218;BME280;47282;53.362;-2.222;2022-10-28T19:12:37;100673.80;;;11.30;62.61
47218;BME280;47282;53.362;-2.222;2022-10-28T19:15:06;100682.60;;;11.27;62.75
47218;BME280;47282;53.362;-2.222;2022-10-28T19:17:34;100688.35;;;11.24;62.81
47218;BME280;47282;53.362;-2.222;2022-10-28T19:20:02;100684.97;;;11.22;62.88
47218;BME280;47282;53.362;-2.222;2022-10-28T19:22:30;100686.14;;;11.19;62.90
47218;BME280;47282;53.362;-2.222;2022-10-28T19:24:57;100683.72;;;11.18;62.97
47218;BME280;47282;53.362;-2.222;2022-10-28T19:27:25;100682.86;;;11.17;63.03
47218;BME280;47282;53.362;-2.222;2022-10-28T19:29:53;100682.60;;;11.17;63.08
47218;BME280;47282;53.362;-2.222;2022-10-28T19:32:21;100686.28;;;11.14;63.17
47218;BME280;47282;53.362;-2.222;2022-10-28T19:34:49;100688.01;;;11.13;63.19
47218;BME280;47282;53.362;-2.222;2022-10-28T19:37:17;100688.63;;;11.35;63.22
47218;BME280;47282;53.362;-2.222;2022-10-28T19:39:45;100689.47;;;11.10;63.34
47218;BME280;47282;53.362;-2.222;2022-10-28T19:42:14;100695.46;;;11.33;63.33
47218;BME280;47282;53.362;-2.222;2022-10-28T19:44:41;100702.21;;;11.10;63.42
47218;BME280;47282;53.362;-2.222;2022-10-28T19:47:09;100703.96;;;11.06;63.44
47218;BME280;47282;53.362;-2.222;2022-10-28T19:49:37;100704.25;;;10.76;63.55
47218;BME280;47282;53.362;-2.222;2022-10-28T19:52:05;100702.31;;;11.02;63.57
47218;BME280;47282;53.362;-2.222;2022-10-28T19:54:33;100698.17;;;11.01;63.65
47218;BME280;47282;53.362;-2.222;2022-10-28T19:57:01;100699.93;;;11.02;63.82
47218;BME280;47282;53.362;-2.222;2022-10-28T19:59:29;100706.74;;;11.01;63.79
47218;BME280;47282;53.362;-2.222;2022-10-28T20:01:57;100712.56;;;11.02;63.82
47218;BME280;47282;53.362;-2.222;2022-10-28T20:04:25;100719.79;;;11.02;63.88
47218;BME280;47282;53.362;-2.222;2022-10-28T20:06:53;100720.22;;;11.01;63.95
47218;BME280;47282;53.362;-2.222;2022-10-28T20:09:21;100718.79;;;11.06;64.11
47218;BME280;47282;53.362;-2.222;2022-10-28T20:11:49;100718.66;;;11.09;64.14
47218;BME280;47282;53.362;-2.222;2022-10-28T20:14:17;100720.23;;;11.35;64.24
47218;BME280;47282;53.362;-2.222;2022-10-28T20:16:45;100724.40;;;11.16;64.23
47218;BME280;47282;53.362;-2.222;2022-10-28T20:19:14;100720.01;;;11.64;64.24
47218;BME280;47282;53.362;-2.222;2022-10-28T20:21:41;100716.65;;;11.20;64.32
47218;BME280;47282;53.362;-2.222;2022-10-28T20:24:09;100716.75;;;11.19;64.44
47218;BME280;47282;53.362;-2.222;2022-10-28T20:26:37;100714.56;;;11.21;64.61
47218;BME280;47282;53.362;-2.222;2022-10-28T20:29:06;100719.39;;;10.94;64.56
47218;BME280;47282;53.362;-2.222;2022-10-28T20:31:34;100717.20;;;10.93;64.59
47218;BME280;47282;53.362;-2.222;2022-10-28T20:34:03;100710.66;;;11.20;64.62
47218;BME280;47282;53.362;-2.222;2022-10-28T20:36:32;100706.88;;;11.17;64.64
47218;BME280;47282;53.362;-2.222;2022-10-28T20:39:02;100707.11;;;11.15;64.70
47218;BME280;47282;53.362;-2.222;2022-10-28T20:41:33;100710.64;;;11.13;64.74
47218;BME280;47282;53.362;-2.222;2022-10-28T20:44:02;100715.59;;;11.10;64.92
47218;BME280;47282;53.362;-2.222;2022-10-28T20:46:31;100713.83;;;11.07;64.87
47218;BME280;47282;53.362;-2.222;2022-10-28T20:48:59;100712.48;;;11.02;64.98
47218;BME280;47282;53.362;-2.222;2022-10-28T20:51:29;100717.17;;;11.23;65.09
47218;BME280;47282;53.362;-2.222;2022-10-28T20:53:58;100718.59;;;10.99;65.14
47218;BME280;47282;53.362;-2.222;2022-10-28T20:56:27;100722.48;;;10.99;65.21
47218;BME280;47282;53.362;-2.222;2022-10-28T20:58:56;100728.97;;;11.20;65.30
47218;BME280;47282;53.362;-2.222;2022-10-28T21:01:25;100729.51;;;11.20;65.30
47218;BME280;47282;53.362;-2.222;2022-10-28T21:03:55;100733.84;;;10.96;65.35
47218;BME280;47282;53.362;-2.222;2022-10-28T21:06:23;100740.04;;;10.96;65.40
47218;BME280;47282;53.362;-2.222;2022-10-28T21:08:52;100751.79;;;10.95;65.43
47218;BME280;47282;53.362;-2.222;2022-10-28T21:11:20;100758.73;;;10.94;65.49
47218;BME280;47282;53.362;-2.222;2022-10-28T21:13:49;100759.53;;;11.17;65.55
47218;BME280;47282;53.362;-2.222;2022-10-28T21:16:17;100763.80;;;10.96;65.60
47218;BME280;47282;53.362;-2.222;2022-10-28T21:18:46;100768.05;;;10.99;65.59
47218;BME280;47282;53.362;-2.222;2022-10-28T21:21:14;100768.32;;;11.22;65.64
47218;BME280;47282;53.362;-2.222;2022-10-28T21:23:43;100766.23;;;11.22;65.67
47218;BME280;47282;53.362;-2.222;2022-10-28T21:26:11;100766.87;;;11.02;65.75
47218;BME280;47282;53.362;-2.222;2022-10-28T21:28:39;100767.60;;;11.04;65.79
47218;BME280;47282;53.362;-2.222;2022-10-28T21:31:09;100767.50;;;11.05;65.79
47218;BME280;47282;53.362;-2.222;2022-10-28T21:33:39;100762.68;;;11.05;65.87
47218;BME280;47282;53.362;-2.222;2022-10-28T21:36:09;100758.41;;;11.09;65.77
47218;BME280;47282;53.362;-2.222;2022-10-28T21:38:38;100763.55;;;11.11;65.86
47218;BME280;47282;53.362;-2.222;2022-10-28T21:41:09;100772.32;;;11.10;65.88
47218;BME280;47282;53.362;-2.222;2022-10-28T21:43:40;100773.85;;;11.10;65.91
47218;BME280;47282;53.362;-2.222;2022-10-28T21:46:09;100772.13;;;11.12;65.88
47218;BME280;47282;53.362;-2.222;2022-10-28T21:48:38;100771.73;;;11.12;65.90
47218;BME280;47282;53.362;-2.222;2022-10-28T21:51:07;100772.20;;;11.09;66.00
47218;BME280;47282;53.362;-2.222;2022-10-28T21:53:37;100775.10;;;11.08;66.07
47218;BME280;47282;53.362;-2.222;2022-10-28T21:56:07;100779.10;;;11.07;66.08
47218;BME280;47282;53.362;-2.222;2022-10-28T21:58:36;100776.98;;;11.27;66.15
47218;BME280;47282;53.362;-2.222;2022-10-28T22:01:06;100771.08;;;11.05;66.17
47218;BME280;47282;53.362;-2.222;2022-10-28T22:03:35;100772.71;;;11.04;66.20
47218;BME280;47282;53.362;-2.222;2022-10-28T22:06:03;100774.94;;;11.04;66.19
47218;BME280;47282;53.362;-2.222;2022-10-28T22:08:32;100774.86;;;10.99;66.26
47218;BME280;47282;53.362;-2.222;2022-10-28T22:11:02;100776.24;;;10.97;66.31
47218;BME280;47282;53.362;-2.222;2022-10-28T22:13:31;100771.08;;;10.94;66.41
47218;BME280;47282;53.362;-2.222;2022-10-28T22:16:00;100772.40;;;10.91;66.46
47218;BME280;47282;53.362;-2.222;2022-10-28T22:18:28;100777.62;;;10.88;66.49
47218;BME280;47282;53.362;-2.222;2022-10-28T22:21:02;100776.95;;;11.09;66.54
47218;BME280;47282;53.362;-2.222;2022-10-28T22:23:30;100782.00;;;10.84;66.68
47218;BME280;47282;53.362;-2.222;2022-10-28T22:26:00;100782.07;;;10.84;66.70
47218;BME280;47282;53.362;-2.222;2022-10-28T22:28:28;100776.53;;;10.84;66.77
47218;BME280;47282;53.362;-2.222;2022-10-28T22:30:57;100774.60;;;10.84;66.83
47218;BME280;47282;53.362;-2.222;2022-10-28T22:33:25;100767.11;;;10.81;66.89
47218;BME280;47282;53.362;-2.222;2022-10-28T22:35:55;100760.22;;;10.82;66.87
47218;BME280;47282;53.362;-2.222;2022-10-28T22:38:23;100757.73;;;11.05;66.88
47218;BME280;47282;53.362;-2.222;2022-10-28T22:41:01;100753.93;;;11.03;66.97
47218;BME280;47282;53.362;-2.222;2022-10-28T22:43:29;100752.39;;;10.81;67.08
47218;BME280;47282;53.362;-2.222;2022-10-28T22:45:57;100751.88;;;11.02;67.12
47218;BME280;47282;53.362;-2.222;2022-10-28T22:48:26;100762.70;;;11.02;67.14
47218;BME280;47282;53.362;-2.222;2022-10-28T22:50:55;100768.92;;;10.80;67.17
47218;BME280;47282;53.362;-2.222;2022-10-28T22:53:23;100768.66;;;10.78;67.26
47218;BME280;47282;53.362;-2.222;2022-10-28T22:55:52;100767.91;;;11.01;67.27
47218;BME280;47282;53.362;-2.222;2022-10-28T22:58:21;100762.93;;;10.98;67.35
47218;BME280;47282;53.362;-2.222;2022-10-28T23:00:49;100760.18;;;10.76;67.35
47218;BME280;47282;53.362;-2.222;2022-10-28T23:03:17;100765.99;;;10.77;67.34
47218;BME280;47282;53.362;-2.222;2022-10-28T23:05:45;100763.99;;;10.74;67.36
47218;BME280;47282;53.362;-2.222;2022-10-28T23:08:14;100754.44;;;10.73;67.44
47218;BME280;47282;53.362;-2.222;2022-10-28T23:10:42;100747.59;;;10.91;67.55
47218;BME280;47282;53.362;-2.222;2022-10-28T23:13:11;100752.59;;;10.69;67.62
47218;BME280;47282;53.362;-2.222;2022-10-28T23:15:39;100748.40;;;10.67;67.69
47218;BME280;47282;53.362;-2.222;2022-10-28T23:18:07;100742.63;;;10.89;67.77
47218;BME280;47282;53.362;-2.222;2022-10-28T23:20:35;100742.41;;;10.67;67.78
47218;BME280;47282;53.362;-2.222;2022-10-28T23:23:03;100740.31;;;10.88;67.82
47218;BME280;47282;53.362;-2.222;2022-10-28T23:25:31;100732.28;;;11.08;67.88
47218;BME280;47282;53.362;-2.222;2022-10-28T23:27:59;100725.22;;;10.86;67.89
47218;BME280;47282;53.362;-2.222;2022-10-28T23:30:30;100719.34;;;10.86;67.87
47218;BME280;47282;53.362;-2.222;2022-10-28T23:32:59;100718.36;;;10.60;67.99
47218;BME280;47282;53.362;-2.222;2022-10-28T23:35:27;100725.96;;;10.58;68.07
47218;BME280;47282;53.362;-2.222;2022-10-28T23:37:55;100731.92;;;10.79;68.14
47218;BME280;47282;53.362;-2.222;2022-10-28T23:40:23;100732.90;;;10.55;68.20
47218;BME280;47282;53.362;-2.222;2022-10-28T23:42:51;100738.18;;;10.75;68.33
47218;BME280;47282;53.362;-2.222;2022-10-28T23:45:19;100745.04;;;10.96;68.34
47218;BME280;47282;53.362;-2.222;2022-10-28T23:47:46;100748.96;;;10.97;68.36
47218;BME280;47282;53.362;-2.222;2022-10-28T23:50:15;100753.25;;;10.74;68.50
47218;BME280;47282;53.362;-2.222;2022-10-28T23:52:43;100752.22;;;10.97;68.54
47218;BME280;47282;53.362;-2.222;2022-10-28T23:55:11;100748.07;;;10.54;68.66
47218;BME280;47282;53.362;-2.222;2022-10-28T23:57:38;100745.47;;;11.00;68.69
